sensor_id;sensor_type;location;lat;lon;timestamp;pressure;altitude;pressure_sealevel;temperature;humidity
39197;BME280;42889;51.112;13.772;2022-11-11T01:49:57;100538.59;;;7.46;97.32
39197;BME280;42889;51.112;13.772;2022-11-11T01:52:46;100539.75;;;7.02;99.58
39197;BME280;42889;51.112;13.772;2022-11-11T01:55:31;100538.88;;;6.89;100.00
39197;BME280;42889;51.112;13.772;2022-11-11T01:58:17;100537.59;;;6.67;100.00
39197;BME280;42889;51.112;13.772;2022-11-11T02:01:04;100530.00;;;6.47;100.00
39197;BME280;42889;51.112;13.772;2022-11-11T02:13:14;100511.59;;;5.85;100.00
39197;BME280;42889;51.112;13.772;2022-11-11T02:16:18;100517.22;;;5.80;100.00
39197;BME280;42889;51.112;13.772;2022-11-11T02:19:03;100508.94;;;5.85;100.00
39197;BME280;42889;51.112;13.772;2022-11-11T02:21:56;100508.41;;;5.94;100.00
39197;BME280;42889;51.112;13.772;2022-11-11T02:24:44;100506.66;;;6.22;100.00
39197;BME280;42889;51.112;13.772;2022-11-11T02:27:30;100494.03;;;6.65;100.00
39197;BME280;42889;51.112;13.772;2022-11-11T02:30:18;100502.25;;;6.62;100.00
39197;BME280;42889;51.112;13.772;2022-11-11T02:33:04;100503.56;;;6.69;100.00
39197;BME280;42889;51.112;13.772;2022-11-11T02:35:52;100505.75;;;6.77;100.00
39197;BME280;42889;51.112;13.772;2022-11-11T02:38:42;100514.25;;;6.96;100.00
39197;BME280;42889;51.112;13.772;2022-11-11T02:41:28;100517.03;;;6.95;100.00
39197;BME280;42889;51.112;13.772;2022-11-11T02:44:49;100519.16;;;7.17;99.76
39197;BME280;42889;51.112;13.772;2022-11-11T02:47:34;100520.47;;;6.97;100.00
39197;BME280;42889;51.112;13.772;2022-11-11T02:50:20;100516.03;;;6.83;100.00
39197;BME280;42889;51.112;13.772;2022-11-11T02:53:06;100518.06;;;6.79;100.00
39197;BME280;42889;51.112;13.772;2022-11-11T02:55:51;100521.84;;;6.63;100.00
39197;BME280;42889;51.112;13.772;2022-11-11T02:58:37;100527.78;;;6.53;100.00
39197;BME280;42889;51.112;13.772;2022-11-11T03:01:22;100528.97;;;6.21;100.00
39197;BME280;42889;51.112;13.772;2022-11-11T03:04:08;100524.19;;;6.26;100.00
39197;BME280;42889;51.112;13.772;2022-11-11T03:06:54;100514.75;;;6.20;100.00
39197;BME280;42889;51.112;13.772;2022-11-11T03:09:39;100524.16;;;5.99;100.00
39197;BME280;42889;51.112;13.772;2022-11-11T03:12:25;100521.09;;;6.05;100.00
39197;BME280;42889;51.112;13.772;2022-11-11T03:15:10;100528.13;;;6.20;100.00
39197;BME280;42889;51.112;13.772;2022-11-11T03:17:56;100542.53;;;6.03;100.00
39197;BME280;42889;51.112;13.772;2022-11-11T03:20:44;100541.66;;;5.89;100.00
39197;BME280;42889;51.112;13.772;2022-11-11T03:24:09;100538.97;;;6.31;100.00
39197;BME280;42889;51.112;13.772;2022-11-11T03:26:54;100543.00;;;6.39;100.00
39197;BME280;42889;51.112;13.772;2022-11-11T03:29:40;100552.34;;;6.46;100.00
39197;BME280;42889;51.112;13.772;2022-11-11T03:32:26;100549.34;;;6.92;100.00
39197;BME280;42889;51.112;13.772;2022-11-11T03:35:12;100548.97;;;6.98;100.00
39197;BME280;42889;51.112;13.772;2022-11-11T03:37:58;100544.66;;;6.95;100.00
39197;BME280;42889;51.112;13.772;2022-11-11T03:41:04;100550.72;;;6.84;100.00
39197;BME280;42889;51.112;13.772;2022-11-11T03:43:49;100542.16;;;6.92;100.00
39197;BME280;42889;51.112;13.772;2022-11-11T03:46:34;100553.00;;;6.91;100.00
39197;BME280;42889;51.112;13.772;2022-11-11T03:49:20;100557.72;;;6.87;100.00
39197;BME280;42889;51.112;13.772;2022-11-11T03:52:05;100556.22;;;7.23;98.53
39197;BME280;42889;51.112;13.772;2022-11-11T03:54:51;100548.00;;;6.99;98.94
39197;BME280;42889;51.112;13.772;2022-11-11T03:57:42;100543.66;;;7.10;98.97
39197;BME280;42889;51.112;13.772;2022-11-11T04:00:29;100543.75;;;7.09;98.78
39197;BME280;42889;51.112;13.772;2022-11-11T04:03:17;100549.31;;;7.06;98.84
39197;BME280;42889;51.112;13.772;2022-11-11T04:06:21;100553.34;;;6.99;98.48
39197;BME280;42889;51.112;13.772;2022-11-11T04:09:25;100558.09;;;7.08;98.57
39197;BME280;42889;51.112;13.772;2022-11-11T04:12:30;100557.56;;;6.76;99.91
39197;BME280;42889;51.112;13.772;2022-11-11T04:15:37;100557.19;;;6.95;99.48
39197;BME280;42889;51.112;13.772;2022-11-11T04:18:41;100556.59;;;6.77;99.88
39197;BME280;42889;51.112;13.772;2022-11-11T04:21:45;100549.81;;;6.98;98.91
39197;BME280;42889;51.112;13.772;2022-11-11T04:24:30;100549.00;;;7.10;97.04
39197;BME280;42889;51.112;13.772;2022-11-11T04:27:34;100547.03;;;7.00;98.30
39197;BME280;42889;51.112;13.772;2022-11-11T04:30:20;100542.09;;;7.21;96.91
39197;BME280;42889;51.112;13.772;2022-11-11T04:33:05;100535.81;;;7.07;96.92
39197;BME280;42889;51.112;13.772;2022-11-11T04:35:50;100538.31;;;7.23;96.94
39197;BME280;42889;51.112;13.772;2022-11-11T04:38:36;100536.19;;;7.16;96.69
39197;BME280;42889;51.112;13.772;2022-11-11T04:41:40;100532.16;;;7.08;98.07
39197;BME280;42889;51.112;13.772;2022-11-11T04:44:45;100541.09;;;7.09;97.95
39197;BME280;42889;51.112;13.772;2022-11-11T04:48:10;100530.72;;;7.17;97.32
39197;BME280;42889;51.112;13.772;2022-11-11T04:50:57;100520.56;;;7.35;95.99
39197;BME280;42889;51.112;13.772;2022-11-11T04:53:43;100522.91;;;7.27;96.08
39197;BME280;42889;51.112;13.772;2022-11-11T04:56:28;100513.81;;;7.29;95.39
39197;BME280;42889;51.112;13.772;2022-11-11T04:59:53;100512.38;;;7.11;96.40
39197;BME280;42889;51.112;13.772;2022-11-11T05:02:39;100510.16;;;7.18;96.52
39197;BME280;42889;51.112;13.772;2022-11-11T05:05:57;100514.59;;;7.31;95.52
39197;BME280;42889;51.112;13.772;2022-11-11T05:09:23;100519.59;;;7.23;96.20
39197;BME280;42889;51.112;13.772;2022-11-11T05:12:08;100512.50;;;7.09;96.94
39197;BME280;42889;51.112;13.772;2022-11-11T05:14:53;100528.31;;;7.00;97.86
39197;BME280;42889;51.112;13.772;2022-11-11T05:17:57;100523.16;;;7.36;94.27
39197;BME280;42889;51.112;13.772;2022-11-11T05:21:53;100518.84;;;7.21;93.91
39197;BME280;42889;51.112;13.772;2022-11-11T05:24:39;100519.47;;;7.25;93.50
39197;BME280;42889;51.112;13.772;2022-11-11T05:27:45;100525.72;;;7.25;93.54
39197;BME280;42889;51.112;13.772;2022-11-11T05:30:30;100527.50;;;7.25;93.39
39197;BME280;42889;51.112;13.772;2022-11-11T05:33:16;100531.81;;;7.27;94.49
39197;BME280;42889;51.112;13.772;2022-11-11T05:36:01;100531.81;;;7.27;93.16
39197;BME280;42889;51.112;13.772;2022-11-11T05:38:46;100534.47;;;7.15;94.01
39197;BME280;42889;51.112;13.772;2022-11-11T05:41:32;100532.72;;;7.13;93.43
39197;BME280;42889;51.112;13.772;2022-11-11T05:44:17;100539.25;;;7.09;94.08
39197;BME280;42889;51.112;13.772;2022-11-11T05:47:03;100541.00;;;7.23;92.53
39197;BME280;42889;51.112;13.772;2022-11-11T05:49:48;100538.75;;;7.30;92.54
39197;BME280;42889;51.112;13.772;2022-11-11T05:52:34;100536.44;;;7.38;90.96
39197;BME280;42889;51.112;13.772;2022-11-11T05:55:19;100543.81;;;7.34;92.33
39197;BME280;42889;51.112;13.772;2022-11-11T05:58:04;100543.63;;;7.37;91.36
39197;BME280;42889;51.112;13.772;2022-11-11T06:00:50;100541.50;;;7.55;89.70
39197;BME280;42889;51.112;13.772;2022-11-11T06:03:35;100542.16;;;7.59;89.08
39197;BME280;42889;51.112;13.772;2022-11-11T06:06:21;100535.59;;;7.50;89.20
39197;BME280;42889;51.112;13.772;2022-11-11T06:09:41;100529.38;;;7.62;88.45
39197;BME280;42889;51.112;13.772;2022-11-11T06:12:29;100533.66;;;7.52;88.92
39197;BME280;42889;51.112;13.772;2022-11-11T06:15:48;100519.41;;;7.52;88.73
39197;BME280;42889;51.112;13.772;2022-11-11T06:22:51;100537.34;;;7.11;91.18
39197;BME280;42889;51.112;13.772;2022-11-11T06:25:43;100551.38;;;7.15;90.81
39197;BME280;42889;51.112;13.772;2022-11-11T06:29:18;100555.72;;;7.03;91.02
39197;BME280;42889;51.112;13.772;2022-11-11T06:35:54;100555.97;;;7.13;90.66
39197;BME280;42889;51.112;13.772;2022-11-11T06:39:08;100537.28;;;7.26;89.03
39197;BME280;42889;51.112;13.772;2022-11-11T06:55:23;100557.91;;;7.24;89.12
39197;BME280;42889;51.112;13.772;2022-11-11T06:58:45;100550.69;;;7.38;87.85
39197;BME280;42889;51.112;13.772;2022-11-11T07:02:17;100560.44;;;7.39;88.86
39197;BME280;42889;51.112;13.772;2022-11-11T07:18:04;100568.53;;;8.03;82.96
39197;BME280;42889;51.112;13.772;2022-11-11T07:20:50;100571.53;;;7.99;83.18
39197;BME280;42889;51.112;13.772;2022-11-11T07:23:35;100569.50;;;8.15;82.43
39197;BME280;42889;51.112;13.772;2022-11-11T07:26:21;100579.59;;;8.24;81.70
39197;BME280;42889;51.112;13.772;2022-11-11T07:29:06;100577.84;;;8.49;80.37
39197;BME280;42889;51.112;13.772;2022-11-11T07:31:52;100589.97;;;8.54;79.73
39197;BME280;42889;51.112;13.772;2022-11-11T07:34:37;100600.13;;;8.62;79.90
39197;BME280;42889;51.112;13.772;2022-11-11T07:37:23;100600.97;;;8.75;78.45
39197;BME280;42889;51.112;13.772;2022-11-11T07:40:12;100601.38;;;8.82;78.37
39197;BME280;42889;51.112;13.772;2022-11-11T07:42:58;100609.63;;;8.91;77.54
39197;BME280;42889;51.112;13.772;2022-11-11T07:45:43;100612.06;;;8.94;77.88
39197;BME280;42889;51.112;13.772;2022-11-11T07:48:28;100614.03;;;9.16;76.70
39197;BME280;42889;51.112;13.772;2022-11-11T07:51:14;100618.59;;;9.27;75.56
39197;BME280;42889;51.112;13.772;2022-11-11T07:53:59;100619.25;;;9.31;77.21
39197;BME280;42889;51.112;13.772;2022-11-11T07:56:44;100623.34;;;9.47;74.93
39197;BME280;42889;51.112;13.772;2022-11-11T07:59:30;100626.31;;;9.56;74.76
39197;BME280;42889;51.112;13.772;2022-11-11T08:02:16;100626.94;;;9.59;74.08
39197;BME280;42889;51.112;13.772;2022-11-11T08:05:01;100650.09;;;9.49;74.29
39197;BME280;42889;51.112;13.772;2022-11-11T08:07:46;100646.09;;;9.55;77.71
39197;BME280;42889;51.112;13.772;2022-11-11T08:10:33;100651.16;;;9.70;77.18
39197;BME280;42889;51.112;13.772;2022-11-11T08:13:19;100646.44;;;9.74;73.66
39197;BME280;42889;51.112;13.772;2022-11-11T08:16:23;100653.97;;;9.69;76.27
39197;BME280;42889;51.112;13.772;2022-11-11T08:19:08;100657.75;;;9.66;77.33
39197;BME280;42889;51.112;13.772;2022-11-11T08:21:53;100663.31;;;9.52;76.33
39197;BME280;42889;51.112;13.772;2022-11-11T08:24:38;100652.66;;;9.74;73.61
39197;BME280;42889;51.112;13.772;2022-11-11T08:27:44;100656.28;;;9.62;75.71
39197;BME280;42889;51.112;13.772;2022-11-11T08:30:30;100646.84;;;9.57;74.27
39197;BME280;42889;51.112;13.772;2022-11-11T08:33:17;100647.75;;;9.44;76.32
39197;BME280;42889;51.112;13.772;2022-11-11T08:36:17;100646.81;;;9.45;76.34
39197;BME280;42889;51.112;13.772;2022-11-11T08:39:05;100648.63;;;9.45;76.03
39197;BME280;42889;51.112;13.772;2022-11-11T08:41:51;100648.84;;;9.42;77.31
39197;BME280;42889;51.112;13.772;2022-11-11T08:44:36;100648.38;;;9.48;77.45
39197;BME280;42889;51.112;13.772;2022-11-11T08:47:21;100652.84;;;9.60;77.24
39197;BME280;42889;51.112;13.772;2022-11-11T08:50:09;100659.56;;;9.66;79.39
39197;BME280;42889;51.112;13.772;2022-11-11T08:52:54;100657.22;;;9.85;78.63
39197;BME280;42889;51.112;13.772;2022-11-11T08:55:40;100657.09;;;9.87;76.64
39197;BME280;42889;51.112;13.772;2022-11-11T08:58:26;100655.63;;;9.94;77.11
39197;BME280;42889;51.112;13.772;2022-11-11T09:01:12;100664.81;;;9.91;77.77
39197;BME280;42889;51.112;13.772;2022-11-11T09:03:58;100668.59;;;10.24;77.85
39197;BME280;42889;51.112;13.772;2022-11-11T09:07:00;100661.56;;;10.57;75.66
39197;BME280;42889;51.112;13.772;2022-11-11T09:09:46;100661.69;;;10.66;75.75
39197;BME280;42889;51.112;13.772;2022-11-11T09:12:31;100659.50;;;10.71;74.54
39197;BME280;42889;51.112;13.772;2022-11-11T09:15:17;100672.69;;;10.63;76.05
39197;BME280;42889;51.112;13.772;2022-11-11T09:18:02;100673.53;;;10.86;75.03
39197;BME280;42889;51.112;13.772;2022-11-11T09:20:47;100680.63;;;10.76;74.25
39197;BME280;42889;51.112;13.772;2022-11-11T09:23:33;100673.03;;;10.81;73.59
39197;BME280;42889;51.112;13.772;2022-11-11T09:26:18;100678.06;;;10.97;73.26
39197;BME280;42889;51.112;13.772;2022-11-11T09:29:04;100672.63;;;11.19;72.62
39197;BME280;42889;51.112;13.772;2022-11-11T09:31:49;100668.94;;;11.31;71.63
39197;BME280;42889;51.112;13.772;2022-11-11T09:34:35;100675.47;;;11.06;72.13
39197;BME280;42889;51.112;13.772;2022-11-11T09:37:20;100675.72;;;11.03;72.29
39197;BME280;42889;51.112;13.772;2022-11-11T09:40:06;100665.19;;;11.12;71.94
39197;BME280;42889;51.112;13.772;2022-11-11T09:46:36;100673.88;;;11.15;74.01
39197;BME280;42889;51.112;13.772;2022-11-11T09:52:19;100672.97;;;11.26;73.14
39197;BME280;42889;51.112;13.772;2022-11-11T09:58:05;100677.69;;;11.13;74.05
39197;BME280;42889;51.112;13.772;2022-11-11T10:01:01;100684.63;;;11.15;73.48
39197;BME280;42889;51.112;13.772;2022-11-11T10:03:59;100686.63;;;11.02;75.60
39197;BME280;42889;51.112;13.772;2022-11-11T10:06:49;100678.53;;;11.02;74.35
39197;BME280;42889;51.112;13.772;2022-11-11T10:09:48;100686.91;;;10.99;74.10
39197;BME280;42889;51.112;13.772;2022-11-11T10:12:43;100690.31;;;11.01;74.92
39197;BME280;42889;51.112;13.772;2022-11-11T10:15:34;100674.16;;;11.01;73.48
39197;BME280;42889;51.112;13.772;2022-11-11T10:21:45;100677.44;;;11.59;72.24
39197;BME280;42889;51.112;13.772;2022-11-11T10:25:18;100674.31;;;12.28;68.03
39197;BME280;42889;51.112;13.772;2022-11-11T10:28:05;100679.78;;;12.68;68.53
39197;BME280;42889;51.112;13.772;2022-11-11T10:30:52;100675.94;;;12.91;65.94
39197;BME280;42889;51.112;13.772;2022-11-11T10:33:43;100676.84;;;13.11;64.94
39197;BME280;42889;51.112;13.772;2022-11-11T10:36:29;100671.38;;;12.92;64.07
39197;BME280;42889;51.112;13.772;2022-11-11T10:42:44;100683.75;;;12.33;66.35
39197;BME280;42889;51.112;13.772;2022-11-11T10:46:28;100675.72;;;12.22;66.97
39197;BME280;42889;51.112;13.772;2022-11-11T10:49:17;100676.56;;;12.23;67.63
39197;BME280;42889;51.112;13.772;2022-11-11T10:52:24;100680.03;;;12.86;68.58
39197;BME280;42889;51.112;13.772;2022-11-11T10:55:21;100679.13;;;13.95;62.84
39197;BME280;42889;51.112;13.772;2022-11-11T10:58:16;100680.75;;;14.44;59.91
39197;BME280;42889;51.112;13.772;2022-11-11T11:01:06;100677.63;;;14.39;58.99
39197;BME280;42889;51.112;13.772;2022-11-11T11:04:02;100671.75;;;14.73;58.87
39197;BME280;42889;51.112;13.772;2022-11-11T11:06:51;100674.34;;;15.47;56.78
39197;BME280;42889;51.112;13.772;2022-11-11T11:09:48;100678.38;;;15.89;55.77
39197;BME280;42889;51.112;13.772;2022-11-11T11:12:40;100676.56;;;15.97;56.38
39197;BME280;42889;51.112;13.772;2022-11-11T11:15:27;100676.06;;;16.38;54.36
39197;BME280;42889;51.112;13.772;2022-11-11T11:18:17;100681.81;;;16.34;52.48
39197;BME280;42889;51.112;13.772;2022-11-11T11:21:05;100674.75;;;15.52;55.17
39197;BME280;42889;51.112;13.772;2022-11-11T11:23:50;100672.19;;;15.33;53.96
39197;BME280;42889;51.112;13.772;2022-11-11T11:26:48;100669.19;;;14.99;56.42
39197;BME280;42889;51.112;13.772;2022-11-11T11:29:38;100664.69;;;14.53;58.72
39197;BME280;42889;51.112;13.772;2022-11-11T11:32:29;100674.09;;;14.39;60.17
39197;BME280;42889;51.112;13.772;2022-11-11T11:35:33;100674.09;;;14.48;61.85
39197;BME280;42889;51.112;13.772;2022-11-11T11:38:18;100678.63;;;14.67;57.14
39197;BME280;42889;51.112;13.772;2022-11-11T11:41:04;100671.94;;;14.62;57.22
39197;BME280;42889;51.112;13.772;2022-11-11T11:43:49;100669.81;;;14.36;57.79
39197;BME280;42889;51.112;13.772;2022-11-11T11:46:41;100654.84;;;14.32;58.11
39197;BME280;42889;51.112;13.772;2022-11-11T11:55:50;100663.88;;;14.13;59.78
39197;BME280;42889;51.112;13.772;2022-11-11T12:01:44;100653.50;;;13.99;61.41
39197;BME280;42889;51.112;13.772;2022-11-11T12:05:01;100662.31;;;14.11;59.39
39197;BME280;42889;51.112;13.772;2022-11-11T12:10:56;100655.16;;;14.29;59.20
39197;BME280;42889;51.112;13.772;2022-11-11T12:19:53;100646.34;;;14.17;58.06
39197;BME280;42889;51.112;13.772;2022-11-11T12:26:17;100633.09;;;14.14;58.96
39197;BME280;42889;51.112;13.772;2022-11-11T12:35:47;100636.28;;;13.90;59.30
39197;BME280;42889;51.112;13.772;2022-11-11T12:48:22;100639.97;;;13.80;62.04
39197;BME280;42889;51.112;13.772;2022-11-11T12:52:03;100641.97;;;13.78;62.15
39197;BME280;42889;51.112;13.772;2022-11-11T13:00:18;100641.97;;;13.78;61.40
39197;BME280;42889;51.112;13.772;2022-11-11T13:12:02;100628.28;;;13.50;64.35
39197;BME280;42889;51.112;13.772;2022-11-11T13:15:01;100631.28;;;13.47;63.86
39197;BME280;42889;51.112;13.772;2022-11-11T13:17:49;100631.41;;;13.26;63.85
39197;BME280;42889;51.112;13.772;2022-11-11T13:20:58;100629.59;;;13.46;62.86
39197;BME280;42889;51.112;13.772;2022-11-11T13:23:44;100637.94;;;13.33;63.03
39197;BME280;42889;51.112;13.772;2022-11-11T13:26:34;100645.78;;;13.27;64.90
39197;BME280;42889;51.112;13.772;2022-11-11T13:32:39;100643.56;;;13.11;69.34
39197;BME280;42889;51.112;13.772;2022-11-11T13:35:49;100637.28;;;13.01;70.11
39197;BME280;42889;51.112;13.772;2022-11-11T13:41:38;100653.63;;;12.99;71.45
39197;BME280;42889;51.112;13.772;2022-11-11T13:44:33;100666.19;;;12.79;80.07
39197;BME280;42889;51.112;13.772;2022-11-11T13:47:27;100665.66;;;12.85;77.52
39197;BME280;42889;51.112;13.772;2022-11-11T13:50:31;100665.13;;;12.91;73.47
39197;BME280;42889;51.112;13.772;2022-11-11T13:53:31;100659.44;;;12.95;73.76
39197;BME280;42889;51.112;13.772;2022-11-11T13:56:29;100647.53;;;12.97;69.96
39197;BME280;42889;51.112;13.772;2022-11-11T13:59:26;100639.09;;;12.90;73.73
39197;BME280;42889;51.112;13.772;2022-11-11T14:07:52;100653.44;;;12.91;71.68
39197;BME280;42889;51.112;13.772;2022-11-11T14:10:49;100648.47;;;12.86;71.36
39197;BME280;42889;51.112;13.772;2022-11-11T14:13:36;100652.78;;;12.68;74.12
39197;BME280;42889;51.112;13.772;2022-11-11T14:25:25;100649.56;;;12.23;76.74
39197;BME280;42889;51.112;13.772;2022-11-11T14:38:04;100653.81;;;11.51;81.36
39197;BME280;42889;51.112;13.772;2022-11-11T14:40:56;100656.78;;;11.37;82.92
39197;BME280;42889;51.112;13.772;2022-11-11T14:43:41;100652.75;;;11.31;82.42
39197;BME280;42889;51.112;13.772;2022-11-11T14:46:30;100652.66;;;11.33;83.27
39197;BME280;42889;51.112;13.772;2022-11-11T14:49:53;100654.53;;;11.21;83.64
39197;BME280;42889;51.112;13.772;2022-11-11T14:52:45;100664.09;;;11.03;85.03
39197;BME280;42889;51.112;13.772;2022-11-11T14:55:36;100665.94;;;10.80;87.55
39197;BME280;42889;51.112;13.772;2022-11-11T14:58:24;100669.50;;;10.69;88.09
39197;BME280;42889;51.112;13.772;2022-11-11T15:01:15;100648.59;;;10.50;89.15
39197;BME280;42889;51.112;13.772;2022-11-11T15:04:05;100661.91;;;10.52;88.77
39197;BME280;42889;51.112;13.772;2022-11-11T15:06:58;100662.97;;;10.27;90.58
39197;BME280;42889;51.112;13.772;2022-11-11T15:10:15;100680.94;;;10.26;90.63
39197;BME280;42889;51.112;13.772;2022-11-11T15:29:23;100677.31;;;10.03;89.82
39197;BME280;42889;51.112;13.772;2022-11-11T15:41:28;100672.50;;;9.85;92.25
39197;BME280;42889;51.112;13.772;2022-11-11T15:45:32;100675.53;;;9.80;90.61
39197;BME280;42889;51.112;13.772;2022-11-11T15:48:43;100685.00;;;9.62;91.92
39197;BME280;42889;51.112;13.772;2022-11-11T15:56:27;100686.75;;;9.50;93.14
39197;BME280;42889;51.112;13.772;2022-11-11T16:00:29;100673.38;;;9.37;92.90
39197;BME280;42889;51.112;13.772;2022-11-11T16:08:23;100675.13;;;9.26;94.61
39197;BME280;42889;51.112;13.772;2022-11-11T16:20:20;100682.47;;;9.11;95.61
39197;BME280;42889;51.112;13.772;2022-11-11T16:23:42;100678.75;;;9.01;96.00
39197;BME280;42889;51.112;13.772;2022-11-11T16:35:51;100690.53;;;8.74;97.96
39197;BME280;42889;51.112;13.772;2022-11-11T16:38:54;100685.25;;;8.60;97.83
39197;BME280;42889;51.112;13.772;2022-11-11T16:46:12;100685.28;;;8.47;99.42
39197;BME280;42889;51.112;13.772;2022-11-11T16:49:59;100689.88;;;8.45;98.91
39197;BME280;42889;51.112;13.772;2022-11-11T17:11:44;100689.56;;;7.84;100.00
39197;BME280;42889;51.112;13.772;2022-11-11T17:14:40;100686.38;;;7.92;100.00
39197;BME280;42889;51.112;13.772;2022-11-11T17:17:28;100688.50;;;7.87;100.00
39197;BME280;42889;51.112;13.772;2022-11-11T17:20:18;100694.19;;;7.95;100.00
39197;BME280;42889;51.112;13.772;2022-11-11T17:36:51;100693.03;;;7.32;100.00
39197;BME280;42889;51.112;13.772;2022-11-11T17:39:57;100693.47;;;7.39;100.00
39197;BME280;42889;51.112;13.772;2022-11-11T17:47:48;100705.66;;;7.57;100.00
39197;BME280;42889;51.112;13.772;2022-11-11T18:00:23;100708.28;;;7.45;100.00
39197;BME280;42889;51.112;13.772;2022-11-11T18:03:45;100711.06;;;7.43;100.00
39197;BME280;42889;51.112;13.772;2022-11-11T18:29:16;100704.94;;;6.85;100.00
39197;BME280;42889;51.112;13.772;2022-11-11T18:33:29;100706.59;;;6.74;100.00
39197;BME280;42889;51.112;13.772;2022-11-11T19:03:35;100718.03;;;6.33;100.00
39197;BME280;42889;51.112;13.772;2022-11-11T19:07:57;100719.50;;;6.08;100.00
39197;BME280;42889;51.112;13.772;2022-11-11T19:12:11;100714.03;;;5.80;100.00
39197;BME280;42889;51.112;13.772;2022-11-11T19:33:52;100736.59;;;5.44;100.00
39197;BME280;42889;51.112;13.772;2022-11-11T19:42:48;100732.22;;;5.27;100.00
39197;BME280;42889;51.112;13.772;2022-11-11T19:46:36;100734.69;;;5.31;100.00
39197;BME280;42889;51.112;13.772;2022-11-11T20:21:00;100757.97;;;6.06;100.00
39197;BME280;42889;51.112;13.772;2022-11-11T20:28:47;63530.91;;;-146.37;100.00
39197;BME280;42889;51.112;13.772;2022-11-11T20:36:57;63530.91;;;-146.37;100.00
39197;BME280;42889;51.112;13.772;2022-11-11T20:45:06;63530.91;;;-146.37;100.00
39197;BME280;42889;51.112;13.772;2022-11-11T21:13:25;63530.91;;;-146.37;100.00
39197;BME280;42889;51.112;13.772;2022-11-11T21:16:14;63530.91;;;-146.37;100.00
39197;BME280;42889;51.112;13.772;2022-11-11T21:19:02;63530.91;;;-146.37;100.00
39197;BME280;42889;51.112;13.772;2022-11-11T21:21:48;63530.91;;;-146.37;100.00
39197;BME280;42889;51.112;13.772;2022-11-11T21:30:56;63530.91;;;-146.37;100.00
39197;BME280;42889;51.112;13.772;2022-11-11T21:33:42;63530.91;;;-146.37;100.00
39197;BME280;42889;51.112;13.772;2022-11-11T21:46:53;63530.91;;;-146.37;100.00
39197;BME280;42889;51.112;13.772;2022-11-11T22:07:39;63530.91;;;-146.37;100.00
39197;BME280;42889;51.112;13.772;2022-11-11T22:10:24;63530.91;;;-146.37;100.00
39197;BME280;42889;51.112;13.772;2022-11-11T22:13:10;63530.91;;;-146.37;100.00
39197;BME280;42889;51.112;13.772;2022-11-11T22:22:15;63530.91;;;-146.37;100.00
39197;BME280;42889;51.112;13.772;2022-11-11T22:25:25;63530.91;;;-146.37;100.00
39197;BME280;42889;51.112;13.772;2022-11-11T22:37:48;63530.91;;;-146.37;100.00
39197;BME280;42889;51.112;13.772;2022-11-11T22:50:09;63530.91;;;-146.37;100.00
39197;BME280;42889;51.112;13.772;2022-11-11T22:54:37;63530.91;;;-146.37;100.00
39197;BME280;42889;51.112;13.772;2022-11-11T23:03:37;63530.91;;;-146.37;100.00
39197;BME280;42889;51.112;13.772;2022-11-11T23:11:48;63530.91;;;-146.37;100.00
39197;BME280;42889;51.112;13.772;2022-11-11T23:15:01;63530.91;;;-146.37;100.00
39197;BME280;42889;51.112;13.772;2022-11-11T23:18:27;63530.91;;;-146.37;100.00
39197;BME280;42889;51.112;13.772;2022-11-11T23:22:43;63530.91;;;-146.37;100.00
39197;BME280;42889;51.112;13.772;2022-11-11T23:25:34;63530.91;;;-146.37;100.00
39197;BME280;42889;51.112;13.772;2022-11-11T23:28:22;63530.91;;;-146.37;100.00
39197;BME280;42889;51.112;13.772;2022-11-11T23:35:38;63530.91;;;-146.37;100.00
39197;BME280;42889;51.112;13.772;2022-11-11T23:39:16;63530.91;;;-146.37;100.00
39197;BME280;42889;51.112;13.772;2022-11-11T23:43:07;63530.91;;;-146.37;100.00
39197;BME280;42889;51.112;13.772;2022-11-11T23:46:17;63530.91;;;-146.37;100.00
39197;BME280;42889;51.112;13.772;2022-11-11T23:49:15;63530.91;;;-146.37;100.00
39197;BME280;42889;51.112;13.772;2022-11-11T23:53:05;63530.91;;;-146.37;100.00
39197;BME280;42889;51.112;13.772;2022-11-11T23:56:12;63530.91;;;-146.37;100.00
